createdAt,value
2023-06-14T00:00:30.772Z,182.81
2023-06-14T00:01:30.828Z,182.40
2023-06-14T00:02:30.998Z,183.02
2023-06-14T00:03:30.965Z,182.21
2023-06-14T00:04:30.919Z,182.43
2023-06-14T00:05:30.895Z,181.49
2023-06-14T00:06:31.458Z,182.00
2023-06-14T00:07:31.011Z,182.63
2023-06-14T00:08:31.060Z,182.56
2023-06-14T00:09:31.137Z,181.03
2023-06-14T00:10:31.156Z,181.48
2023-06-14T00:11:31.456Z,182.10
2023-06-14T00:12:31.256Z,182.40
2023-06-14T00:13:31.336Z,180.34
2023-06-14T00:14:31.440Z,180.35
2023-06-14T00:15:31.410Z,180.65
2023-06-14T00:16:31.566Z,179.84
2023-06-14T00:17:31.573Z,181.24
2023-06-14T00:18:31.535Z,178.70
2023-06-14T00:19:31.588Z,179.40
2023-06-14T00:20:31.738Z,180.24
2023-06-14T00:21:31.997Z,179.06
2023-06-14T00:22:31.741Z,178.90
2023-06-14T00:23:31.793Z,179.00
2023-06-14T00:24:31.850Z,177.92
2023-06-14T00:25:31.861Z,178.17
2023-06-14T00:26:32.045Z,178.34
2023-06-14T00:27:31.865Z,177.83
2023-06-14T00:28:31.891Z,178.06
2023-06-14T00:29:31.944Z,179.33
2023-06-14T00:30:32.311Z,177.31
2023-06-14T00:31:32.458Z,177.73
2023-06-14T00:32:32.093Z,177.27
2023-06-14T00:33:32.085Z,177.81
2023-06-14T00:34:32.109Z,177.77
2023-06-14T00:35:32.098Z,177.73
2023-06-14T00:36:32.182Z,175.42
2023-06-14T00:37:32.217Z,176.54
2023-06-14T00:38:32.220Z,176.00
2023-06-14T00:39:32.295Z,176.00
2023-06-14T00:40:32.265Z,175.98
2023-06-14T00:41:32.305Z,176.83
2023-06-14T00:42:32.327Z,176.15
2023-06-14T00:43:32.401Z,176.40
2023-06-14T00:44:32.389Z,174.26
2023-06-14T00:45:32.423Z,174.19
2023-06-14T00:46:32.445Z,175.18
2023-06-14T00:47:32.509Z,174.77
2023-06-14T00:48:32.515Z,175.09
2023-06-14T00:49:32.506Z,174.68
2023-06-14T00:50:32.567Z,174.54
2023-06-14T00:51:32.975Z,175.40
2023-06-14T00:52:32.552Z,174.57
2023-06-14T00:53:32.576Z,174.64
2023-06-14T00:54:32.609Z,173.27
2023-06-14T00:55:32.598Z,174.79
2023-06-14T00:56:33.009Z,174.35
2023-06-14T00:57:32.694Z,174.84
2023-06-14T00:58:32.705Z,173.81
2023-06-14T00:59:32.710Z,172.40
2023-06-14T01:00:32.739Z,173.91
2023-06-14T01:01:32.997Z,172.06
2023-06-14T01:02:32.860Z,171.98
2023-06-14T01:03:32.999Z,171.22
2023-06-14T01:04:32.864Z,170.36
2023-06-14T01:05:32.866Z,170.53
2023-06-14T01:06:33.484Z,170.43
2023-06-14T01:07:32.913Z,169.20
2023-06-14T01:08:32.929Z,170.21
2023-06-14T01:09:32.952Z,169.73
2023-06-14T01:10:32.950Z,168.64
2023-06-14T01:11:33.466Z,168.23
2023-06-14T01:12:32.984Z,168.27
2023-06-14T01:13:33.023Z,171.96
2023-06-14T01:14:33.050Z,168.12
2023-06-14T01:15:33.095Z,168.79
2023-06-14T01:16:33.116Z,168.80
2023-06-14T01:17:33.189Z,169.22
2023-06-14T01:18:33.139Z,168.71
2023-06-14T01:19:33.110Z,167.85
2023-06-14T01:20:33.201Z,166.13
2023-06-14T01:21:33.210Z,167.36
2023-06-14T01:22:33.233Z,167.13
2023-06-14T01:23:33.270Z,167.42
2023-06-14T01:24:33.551Z,167.20
2023-06-14T01:25:33.348Z,166.62
2023-06-14T01:26:33.358Z,166.71
2023-06-14T01:27:33.397Z,166.75
2023-06-14T01:28:33.485Z,167.29
2023-06-14T01:29:33.581Z,167.94
2023-06-14T01:30:33.552Z,166.73
2023-06-14T01:31:33.608Z,165.49
2023-06-14T01:32:33.661Z,166.91
2023-06-14T01:33:33.684Z,165.64
2023-06-14T01:34:33.750Z,165.93
2023-06-14T01:35:33.741Z,167.06
2023-06-14T01:36:33.802Z,167.02
2023-06-14T01:37:33.844Z,165.88
2023-06-14T01:38:33.885Z,166.08
2023-06-14T01:39:33.935Z,165.53
2023-06-14T01:40:33.951Z,165.79
2023-06-14T01:41:33.976Z,165.30
2023-06-14T01:42:33.995Z,165.02
2023-06-14T01:43:34.035Z,164.52
2023-06-14T01:44:34.146Z,163.42
2023-06-14T01:45:34.123Z,164.59
2023-06-14T01:46:34.272Z,164.73
2023-06-14T01:47:34.256Z,164.52
2023-06-14T01:48:34.266Z,164.61
2023-06-14T01:49:34.263Z,164.57
2023-06-14T01:50:34.357Z,164.17
2023-06-14T01:51:34.376Z,164.21
2023-06-14T01:52:34.441Z,163.65
2023-06-14T01:53:34.490Z,163.48
2023-06-14T01:54:34.496Z,164.02
2023-06-14T01:55:34.513Z,163.41
2023-06-14T01:56:34.586Z,162.60
2023-06-14T01:57:34.639Z,163.03
2023-06-14T01:58:34.706Z,163.09
2023-06-14T01:59:34.720Z,162.21
2023-06-14T02:00:34.674Z,162.13
2023-06-14T02:01:34.749Z,161.84
2023-06-14T02:02:34.774Z,162.07
2023-06-14T02:03:34.745Z,162.87
2023-06-14T02:04:34.752Z,162.14
2023-06-14T02:05:34.840Z,161.08
2023-06-14T02:06:34.766Z,161.73
2023-06-14T02:07:34.866Z,162.06
2023-06-14T02:08:34.921Z,161.77
2023-06-14T02:09:34.980Z,160.69
2023-06-14T02:10:36.361Z,160.93
2023-06-14T02:11:35.017Z,160.05
2023-06-14T02:12:35.034Z,159.86
2023-06-14T02:13:35.099Z,160.24
2023-06-14T02:14:35.194Z,162.04
2023-06-14T02:15:35.482Z,160.96
2023-06-14T02:16:35.332Z,159.72
2023-06-14T02:17:35.263Z,160.41
2023-06-14T02:18:35.234Z,160.17
2023-06-14T02:19:35.243Z,158.46
2023-06-14T02:20:35.308Z,159.08
2023-06-14T02:21:35.333Z,159.25
2023-06-14T02:22:35.375Z,158.78
2023-06-14T02:23:35.832Z,158.83
2023-06-14T02:24:35.423Z,158.90
2023-06-14T02:25:35.537Z,158.98
2023-06-14T02:26:35.542Z,159.47
2023-06-14T02:27:35.521Z,158.32
2023-06-14T02:28:35.528Z,157.79
2023-06-14T02:29:35.588Z,158.15
2023-06-14T02:30:35.607Z,157.61
2023-06-14T02:31:35.624Z,157.26
2023-06-14T02:32:35.696Z,158.42
2023-06-14T02:33:35.656Z,157.52
2023-06-14T02:34:35.614Z,158.66
2023-06-14T02:35:35.644Z,158.26
2023-06-14T02:36:35.662Z,156.46
2023-06-14T02:37:35.634Z,157.15
2023-06-14T02:38:35.673Z,156.95
2023-06-14T02:39:35.705Z,157.40
2023-06-14T02:40:35.692Z,157.57
2023-06-14T02:41:35.739Z,157.73
2023-06-14T02:42:35.768Z,154.32
2023-06-14T02:43:35.806Z,155.92
2023-06-14T02:44:35.869Z,156.43
2023-06-14T02:45:35.935Z,154.61
2023-06-14T02:46:35.937Z,155.61
2023-06-14T02:47:36.032Z,154.62
2023-06-14T02:48:36.042Z,155.60
2023-06-14T02:49:36.066Z,155.78
2023-06-14T02:50:36.151Z,155.25
2023-06-14T02:51:36.177Z,155.59
2023-06-14T02:52:36.140Z,156.23
2023-06-14T02:53:36.167Z,155.70
2023-06-14T02:54:36.166Z,154.82
2023-06-14T02:55:36.161Z,156.36
2023-06-14T02:56:36.167Z,155.29
2023-06-14T02:57:36.158Z,154.60
2023-06-14T02:58:36.194Z,154.06
2023-06-14T02:59:36.273Z,154.55
2023-06-14T03:00:36.343Z,154.45
2023-06-14T03:01:36.380Z,154.22
2023-06-14T03:02:36.355Z,153.25
2023-06-14T03:03:36.375Z,152.85
2023-06-14T03:04:36.349Z,154.47
2023-06-14T03:05:36.341Z,153.94
2023-06-14T03:06:36.385Z,153.61
2023-06-14T03:07:36.392Z,151.98
2023-06-14T03:08:36.389Z,152.82
2023-06-14T03:09:36.433Z,153.82
2023-06-14T03:10:36.405Z,153.59
2023-06-14T03:11:36.477Z,152.90
2023-06-14T03:12:36.420Z,152.55
2023-06-14T03:13:36.487Z,153.42
2023-06-14T03:14:36.511Z,152.01
2023-06-14T03:15:36.494Z,152.95
2023-06-14T03:16:36.562Z,152.60
2023-06-14T03:17:36.592Z,152.28
2023-06-14T03:18:36.689Z,152.70
2023-06-14T03:19:36.507Z,150.67
2023-06-14T03:20:36.588Z,150.77
2023-06-14T03:21:36.618Z,151.73
2023-06-14T03:22:36.687Z,151.69
2023-06-14T03:23:36.723Z,151.31
2023-06-14T03:24:36.754Z,150.85
2023-06-14T03:25:36.752Z,149.66
2023-06-14T03:26:36.771Z,150.35
2023-06-14T03:27:36.745Z,149.70
2023-06-14T03:28:36.808Z,149.58
2023-06-14T03:29:36.792Z,150.28
2023-06-14T03:30:36.813Z,149.87
2023-06-14T03:31:36.876Z,151.68
2023-06-14T03:32:36.850Z,149.82
2023-06-14T03:33:36.828Z,149.89
2023-06-14T03:34:36.798Z,150.34
2023-06-14T03:35:36.835Z,148.78
2023-06-14T03:36:36.842Z,150.89
2023-06-14T03:37:36.821Z,149.49
2023-06-14T03:38:36.885Z,149.93
2023-06-14T03:39:36.828Z,150.11
2023-06-14T03:40:36.812Z,149.30
2023-06-14T03:41:36.821Z,148.48
2023-06-14T03:42:36.852Z,148.83
2023-06-14T03:43:36.948Z,149.62
2023-06-14T03:44:36.919Z,149.02
2023-06-14T03:45:36.981Z,147.77
2023-06-14T03:46:36.984Z,148.70
2023-06-14T03:47:37.039Z,149.33
2023-06-14T03:48:37.071Z,147.50
2023-06-14T03:49:37.047Z,148.44
2023-06-14T03:50:37.036Z,147.26
2023-06-14T03:51:37.017Z,146.85
2023-06-14T03:52:37.030Z,148.81
2023-06-14T03:53:40.006Z,148.45
2023-06-14T03:55:55.597Z,148.59
2023-06-14T03:56:38.255Z,148.72
2023-06-14T03:57:37.000Z,149.03
2023-06-14T03:58:36.991Z,149.53
2023-06-14T03:59:37.011Z,149.86
2023-06-14T04:00:37.004Z,149.48
2023-06-14T04:01:37.015Z,148.34
2023-06-14T04:02:37.044Z,147.79
2023-06-14T04:03:37.099Z,147.01
2023-06-14T04:04:36.981Z,146.91
2023-06-14T04:05:37.005Z,146.72
2023-06-14T04:06:36.939Z,145.78
2023-06-14T04:07:36.966Z,146.10
2023-06-14T04:08:36.900Z,146.25
2023-06-14T04:09:36.902Z,146.06
2023-06-14T04:10:36.916Z,145.60
2023-06-14T04:11:36.923Z,146.06
2023-06-14T04:12:36.896Z,145.93
2023-06-14T04:13:36.900Z,146.62
2023-06-14T04:14:36.893Z,146.22
2023-06-14T04:15:36.921Z,145.08
2023-06-14T04:16:36.981Z,144.69
2023-06-14T04:17:36.905Z,145.88
2023-06-14T04:18:36.903Z,145.09
2023-06-14T04:19:36.848Z,144.97
2023-06-14T04:20:36.844Z,145.07
2023-06-14T04:21:36.857Z,145.53
2023-06-14T04:22:36.864Z,142.72
2023-06-14T04:23:36.859Z,144.47
2023-06-14T04:24:36.804Z,144.63
2023-06-14T04:25:36.833Z,143.97
2023-06-14T04:26:36.827Z,144.47
2023-06-14T04:27:36.799Z,143.94
2023-06-14T04:28:36.792Z,143.85
2023-06-14T04:29:36.816Z,144.04
2023-06-14T04:30:36.787Z,144.58
2023-06-14T04:31:36.777Z,145.36
2023-06-14T04:32:36.859Z,143.84
2023-06-14T04:33:36.980Z,143.69
2023-06-14T04:34:36.766Z,143.62
2023-06-14T04:35:36.757Z,142.49
2023-06-14T04:36:36.764Z,144.03
2023-06-14T04:37:36.764Z,143.63
2023-06-14T04:38:36.754Z,141.74
2023-06-14T04:39:36.710Z,143.32
2023-06-14T04:40:36.716Z,143.85
2023-06-14T04:41:36.734Z,144.65
2023-06-14T04:42:36.704Z,142.48
2023-06-14T04:43:36.749Z,143.07
2023-06-14T04:44:36.779Z,142.09
2023-06-14T04:45:36.771Z,142.15
2023-06-14T04:46:36.891Z,141.68
2023-06-14T04:47:36.887Z,142.19
2023-06-14T04:48:36.818Z,142.81
2023-06-14T04:49:36.826Z,140.65
2023-06-14T04:50:36.843Z,141.00
2023-06-14T04:51:36.878Z,139.98
2023-06-14T04:52:36.859Z,141.71
2023-06-14T04:53:36.874Z,140.76
2023-06-14T04:54:37.897Z,140.08
2023-06-14T04:55:36.919Z,139.59
2023-06-14T04:56:36.895Z,139.94
2023-06-14T04:57:36.888Z,138.40
2023-06-14T04:58:36.890Z,139.89
2023-06-14T04:59:36.918Z,139.24
2023-06-14T05:00:36.923Z,139.62
2023-06-14T05:01:36.913Z,140.05
2023-06-14T05:02:37.003Z,141.00
2023-06-14T05:03:36.892Z,141.14
2023-06-14T05:04:36.873Z,140.90
2023-06-14T05:05:36.858Z,140.04
2023-06-14T05:06:36.886Z,140.37
2023-06-14T05:07:37.644Z,141.37
2023-06-14T05:08:36.901Z,140.56
2023-06-14T05:09:36.897Z,140.51
2023-06-14T05:10:36.904Z,140.80
2023-06-14T05:11:36.942Z,139.88
2023-06-14T05:12:36.914Z,141.08
2023-06-14T05:13:36.933Z,140.60
2023-06-14T05:14:36.946Z,141.24
2023-06-14T05:15:36.977Z,141.47
2023-06-14T05:16:36.941Z,139.94
2023-06-14T05:17:36.997Z,141.78
2023-06-14T05:18:36.915Z,140.68
2023-06-14T05:19:36.937Z,140.86
2023-06-14T05:20:36.948Z,141.74
2023-06-14T05:21:42.317Z,140.48
2023-06-14T05:22:37.937Z,140.62
2023-06-14T05:23:36.890Z,140.81
2023-06-14T05:24:36.896Z,140.96
2023-06-14T05:25:36.934Z,141.22
2023-06-14T05:26:36.883Z,140.90
2023-06-14T05:27:36.998Z,141.99
2023-06-14T05:28:36.859Z,141.77
2023-06-14T05:29:36.881Z,142.95
2023-06-14T05:30:36.847Z,142.20
2023-06-14T05:31:36.922Z,141.88
2023-06-14T05:32:36.878Z,142.59
2023-06-14T05:33:36.962Z,140.37
2023-06-14T05:34:36.840Z,141.60
2023-06-14T05:35:36.853Z,141.86
2023-06-14T05:36:36.825Z,141.25
2023-06-14T05:37:36.824Z,141.45
2023-06-14T05:38:36.814Z,141.27
2023-06-14T05:39:36.817Z,140.60
2023-06-14T05:40:36.792Z,141.67
2023-06-14T05:41:36.771Z,141.05
2023-06-14T05:42:36.771Z,140.41
2023-06-14T05:43:36.763Z,140.79
2023-06-14T05:44:36.765Z,139.85
2023-06-14T05:45:36.738Z,140.55
2023-06-14T05:46:37.111Z,140.76
2023-06-14T05:47:36.777Z,140.14
2023-06-14T05:48:36.749Z,140.82
2023-06-14T05:49:36.733Z,141.22
2023-06-14T05:50:36.725Z,141.53
2023-06-14T05:51:36.722Z,141.32
2023-06-14T05:52:36.681Z,140.87
2023-06-14T05:53:36.686Z,141.23
2023-06-14T05:54:36.703Z,140.37
2023-06-14T05:55:36.782Z,140.64
2023-06-14T05:56:36.735Z,140.53
2023-06-14T05:57:36.714Z,140.37
2023-06-14T05:58:36.657Z,140.93
2023-06-14T05:59:36.655Z,140.87
2023-06-14T06:00:36.656Z,141.28
2023-06-14T06:01:36.693Z,141.18
2023-06-14T06:02:36.743Z,140.80
2023-06-14T06:03:36.791Z,140.79
2023-06-14T06:04:36.689Z,140.07
2023-06-14T06:05:36.612Z,140.13
2023-06-14T06:06:37.096Z,141.27
2023-06-14T06:07:38.101Z,141.31
2023-06-14T06:08:36.591Z,141.31
2023-06-14T06:09:36.595Z,140.65
2023-06-14T06:10:36.585Z,141.10
2023-06-14T06:11:48.583Z,141.42
2023-06-14T06:12:37.568Z,141.50
2023-06-14T06:13:36.604Z,141.75
2023-06-14T06:14:36.533Z,140.93
2023-06-14T06:15:36.562Z,140.76
2023-06-14T06:16:36.548Z,143.43
2023-06-14T06:17:53.949Z,148.02
2023-06-14T06:18:37.617Z,148.11
2023-06-14T06:19:36.519Z,148.17
2023-06-14T06:20:36.529Z,148.79
2023-06-14T06:21:36.604Z,148.65
2023-06-14T06:22:36.476Z,127.92
2023-06-14T06:23:36.492Z,130.84
2023-06-14T06:24:36.560Z,121.32
2023-06-14T06:25:36.474Z,97.14
2023-06-14T06:26:36.478Z,84.18
2023-06-14T06:27:36.487Z,62.53
2023-06-14T06:28:36.454Z,47.82
2023-06-14T06:29:36.460Z,49.73
2023-06-14T06:30:36.434Z,48.06
2023-06-14T06:31:36.462Z,29.76
2023-06-14T06:32:36.477Z,19.71
2023-06-14T06:33:36.395Z,25.00
2023-06-14T06:34:36.422Z,25.75
2023-06-14T06:35:36.475Z,23.65
2023-06-14T06:36:36.490Z,25.63
2023-06-14T06:37:36.536Z,24.19
2023-06-14T06:38:36.583Z,24.25
2023-06-14T06:39:36.701Z,20.79
2023-06-14T06:40:36.704Z,25.00
2023-06-14T06:41:36.764Z,24.96
2023-06-14T06:42:36.767Z,33.75
2023-06-14T06:43:36.756Z,27.12
2023-06-14T06:44:36.794Z,29.71
2023-06-14T06:45:36.754Z,31.82
2023-06-14T06:46:36.859Z,25.00
2023-06-14T06:47:36.805Z,24.47
2023-06-14T06:48:36.789Z,32.57
2023-06-14T06:49:36.843Z,42.75
2023-06-14T06:50:36.821Z,58.93
2023-06-14T06:51:36.800Z,52.85
2023-06-14T06:52:36.779Z,34.25
2023-06-14T06:53:42.847Z,39.43
2023-06-14T06:54:37.788Z,40.12
2023-06-14T06:55:36.756Z,43.57
2023-06-14T06:56:36.813Z,48.80
2023-06-14T06:57:36.779Z,55.19
2023-06-14T06:58:36.758Z,72.42
2023-06-14T06:59:36.746Z,83.32
2023-06-14T07:00:36.731Z,88.00
2023-06-14T07:01:36.780Z,65.75
2023-06-14T07:02:36.718Z,51.26
2023-06-14T07:03:36.697Z,53.73
2023-06-14T07:04:36.728Z,37.06
2023-06-14T07:05:36.755Z,34.32
2023-06-14T07:06:36.707Z,28.96
2023-06-14T07:07:36.681Z,19.67
2023-06-14T07:08:36.720Z,25.54
2023-06-14T07:09:36.707Z,26.33
2023-06-14T07:10:36.658Z,34.13
2023-06-14T07:11:36.661Z,49.72
2023-06-14T07:12:36.680Z,50.54
2023-06-14T07:13:36.654Z,43.16
2023-06-14T07:14:36.655Z,42.62
2023-06-14T07:15:36.668Z,32.38
2023-06-14T07:16:37.153Z,38.99
2023-06-14T07:17:36.671Z,41.25
2023-06-14T07:18:36.663Z,31.57
2023-06-14T07:19:36.690Z,31.26
2023-06-14T07:20:36.693Z,30.28
2023-06-14T07:21:36.713Z,31.85
2023-06-14T07:22:36.753Z,30.31
2023-06-14T07:23:36.756Z,38.09
2023-06-14T07:24:36.829Z,43.08
2023-06-14T07:25:36.797Z,42.41
2023-06-14T07:26:36.784Z,48.18
2023-06-14T07:27:36.777Z,45.46
2023-06-14T07:28:36.804Z,37.03
2023-06-14T07:29:36.784Z,41.54
2023-06-14T07:30:36.798Z,34.22
2023-06-14T07:31:36.801Z,41.01
2023-06-14T07:32:36.817Z,48.48
2023-06-14T07:33:36.934Z,37.94
2023-06-14T07:34:36.869Z,33.07
2023-06-14T07:35:36.836Z,23.05
2023-06-14T07:36:36.852Z,35.42
2023-06-14T07:37:36.829Z,53.24
2023-06-14T07:38:36.846Z,58.17
2023-06-14T07:39:36.867Z,76.04
2023-06-14T07:40:36.841Z,87.37
2023-06-14T07:41:36.805Z,79.87
2023-06-14T07:42:36.831Z,88.02
2023-06-14T07:43:36.852Z,77.41
2023-06-14T07:44:36.834Z,75.42
2023-06-14T07:45:36.818Z,74.14
2023-06-14T07:46:36.825Z,72.19
2023-06-14T07:47:36.968Z,63.19
2023-06-14T07:48:36.939Z,56.08
2023-06-14T07:49:36.813Z,44.88
2023-06-14T07:50:36.826Z,43.97
2023-06-14T07:51:36.836Z,46.21
2023-06-14T07:52:36.867Z,53.81
2023-06-14T07:53:36.824Z,63.65
2023-06-14T07:54:36.842Z,70.82
2023-06-14T07:55:52.715Z,54.87
2023-06-14T07:56:37.818Z,53.89
2023-06-14T07:57:36.809Z,58.35
2023-06-14T07:58:36.829Z,67.18
2023-06-14T07:59:36.843Z,79.47
2023-06-14T08:00:36.840Z,94.85
2023-06-14T08:01:36.814Z,105.14
2023-06-14T08:02:36.903Z,99.17
2023-06-14T08:03:36.894Z,102.05
2023-06-14T08:04:36.788Z,97.00
2023-06-14T08:05:36.784Z,96.88
2023-06-14T08:06:36.784Z,88.38
2023-06-14T08:07:36.762Z,79.60
2023-06-14T08:08:36.772Z,78.09
2023-06-14T08:09:36.752Z,65.99
2023-06-14T08:10:36.766Z,46.95
2023-06-14T08:11:37.955Z,40.89
2023-06-14T08:12:36.748Z,56.04
2023-06-14T08:13:36.717Z,57.34
2023-06-14T08:14:36.739Z,74.14
2023-06-14T08:15:36.725Z,69.23
2023-06-14T08:16:36.924Z,67.11
2023-06-14T08:17:36.681Z,70.12
2023-06-14T08:18:36.733Z,44.85
2023-06-14T08:19:36.707Z,54.90
2023-06-14T08:20:36.688Z,45.34
2023-06-14T08:21:36.664Z,60.57
2023-06-14T08:22:36.660Z,58.04
2023-06-14T08:23:36.660Z,55.68
2023-06-14T08:24:36.627Z,64.54
2023-06-14T08:25:36.644Z,50.08
2023-06-14T08:26:36.643Z,49.31
2023-06-14T08:27:36.612Z,49.12
2023-06-14T08:28:36.613Z,46.28
2023-06-14T08:29:36.606Z,49.77
2023-06-14T08:30:36.596Z,56.68
2023-06-14T08:31:36.582Z,53.20
2023-06-14T08:32:36.711Z,53.67
2023-06-14T08:33:36.681Z,52.96
2023-06-14T08:34:37.098Z,55.51
2023-06-14T08:35:37.635Z,44.40
2023-06-14T08:36:36.614Z,53.71
2023-06-14T08:37:36.593Z,69.32
2023-06-14T08:38:36.588Z,57.41
2023-06-14T08:39:36.624Z,58.10
2023-06-14T08:40:36.603Z,69.04
2023-06-14T08:41:36.626Z,67.18
2023-06-14T08:42:36.658Z,81.45
2023-06-14T08:43:36.591Z,84.52
2023-06-14T08:44:36.577Z,97.26
2023-06-14T08:45:36.607Z,90.45
2023-06-14T08:46:36.634Z,76.00
2023-06-14T08:47:41.485Z,93.27
2023-06-14T08:48:37.603Z,93.37
2023-06-14T08:49:37.798Z,66.05
2023-06-14T08:50:36.898Z,85.25
2023-06-14T08:51:36.598Z,79.90
2023-06-14T08:52:36.575Z,82.34
2023-06-14T08:53:38.549Z,75.66
2023-06-14T08:54:36.625Z,81.67
2023-06-14T08:55:38.156Z,97.21
2023-06-14T08:56:36.628Z,92.67
2023-06-14T08:57:36.686Z,82.31
2023-06-14T08:58:36.725Z,81.50
2023-06-14T08:59:36.799Z,79.51
2023-06-14T09:00:36.836Z,67.60
2023-06-14T09:01:36.952Z,72.19
2023-06-14T09:02:36.980Z,70.11
2023-06-14T09:03:37.023Z,67.53
2023-06-14T09:04:37.027Z,80.16
2023-06-14T09:05:37.030Z,84.56
2023-06-14T09:06:37.006Z,48.53
2023-06-14T09:07:37.089Z,54.68
2023-06-14T09:08:37.094Z,60.52
2023-06-14T09:09:37.137Z,64.17
2023-06-14T09:10:37.245Z,73.29
2023-06-14T09:11:37.285Z,80.88
2023-06-14T09:12:37.304Z,77.79
2023-06-14T09:13:37.357Z,88.56
2023-06-14T09:14:37.354Z,88.72
2023-06-14T09:15:37.403Z,28.65
2023-06-14T09:16:37.532Z,23.01
2023-06-14T09:17:37.570Z,30.12
2023-06-14T09:18:37.603Z,43.93
2023-06-14T09:19:37.648Z,56.80
2023-06-14T09:20:37.711Z,60.71
2023-06-14T09:21:37.742Z,54.33
2023-06-14T09:22:37.837Z,58.74
2023-06-14T09:23:37.930Z,74.50
2023-06-14T09:24:37.948Z,74.12
2023-06-14T09:25:40.275Z,80.49
2023-06-14T09:26:38.174Z,76.26
2023-06-14T09:27:38.195Z,75.00
2023-06-14T09:28:38.223Z,78.68
2023-06-14T09:29:38.342Z,81.46
2023-06-14T09:30:38.304Z,62.17
2023-06-14T09:31:38.376Z,76.99
2023-06-14T09:32:38.397Z,44.53
2023-06-14T09:33:38.365Z,25.67
2023-06-14T09:34:38.416Z,8.09
2023-06-14T09:35:38.498Z,36.10
2023-06-14T09:36:38.525Z,55.48
2023-06-14T09:37:38.576Z,69.88
2023-06-14T09:38:38.625Z,77.82
2023-06-14T09:39:38.609Z,74.38
2023-06-14T09:40:38.667Z,68.73
2023-06-14T09:41:38.676Z,80.32
2023-06-14T09:42:38.706Z,82.02
2023-06-14T09:43:38.726Z,78.06
2023-06-14T09:44:38.719Z,70.26
2023-06-14T09:45:38.748Z,78.34
2023-06-14T09:46:38.894Z,84.90
2023-06-14T09:47:39.357Z,106.99
2023-06-14T09:48:38.908Z,114.31
2023-06-14T09:49:38.848Z,124.44
2023-06-14T09:50:38.822Z,124.69
2023-06-14T09:51:38.910Z,93.98
2023-06-14T09:52:39.166Z,105.13
2023-06-14T09:53:38.996Z,117.07
2023-06-14T09:54:39.066Z,123.33
2023-06-14T09:55:39.235Z,125.45
2023-06-14T09:56:39.126Z,123.37
2023-06-14T09:57:39.221Z,110.53
2023-06-14T09:58:39.262Z,100.71
2023-06-14T09:59:39.285Z,71.92
2023-06-14T10:00:39.323Z,62.16
2023-06-14T10:01:39.458Z,53.39
2023-06-14T10:02:39.467Z,38.14
2023-06-14T10:03:57.498Z,43.30
2023-06-14T10:04:40.453Z,43.47
2023-06-14T10:05:39.465Z,44.19
2023-06-14T10:06:39.407Z,49.33
2023-06-14T10:07:39.697Z,57.79
2023-06-14T10:08:39.414Z,74.72
2023-06-14T10:09:39.398Z,72.65
2023-06-14T10:10:39.407Z,73.55
2023-06-14T10:11:39.438Z,80.71
2023-06-14T10:12:39.392Z,50.60
2023-06-14T10:13:39.400Z,36.63
2023-06-14T10:14:39.458Z,32.48
2023-06-14T10:15:39.448Z,29.33
2023-06-14T10:16:39.603Z,37.47
2023-06-14T10:17:39.567Z,50.03
2023-06-14T10:18:39.592Z,44.69
2023-06-14T10:19:39.564Z,56.50
2023-06-14T10:20:39.650Z,46.02
2023-06-14T10:21:39.607Z,34.26
2023-06-14T10:22:39.662Z,34.90
2023-06-14T10:23:39.697Z,42.77
2023-06-14T10:24:39.867Z,52.55
2023-06-14T10:25:39.774Z,42.45
2023-06-14T10:26:39.846Z,34.49
2023-06-14T10:27:39.917Z,36.16
2023-06-14T10:28:39.927Z,46.74
2023-06-14T10:29:39.996Z,34.91
2023-06-14T10:30:40.004Z,30.42
2023-06-14T10:31:40.085Z,36.80
2023-06-14T10:32:40.153Z,37.03
2023-06-14T10:33:41.690Z,43.36
2023-06-14T10:34:40.261Z,39.38
2023-06-14T10:35:40.128Z,42.59
2023-06-14T10:36:40.093Z,39.11
2023-06-14T10:37:40.082Z,32.25
2023-06-14T10:38:40.096Z,24.83
2023-06-14T10:39:40.085Z,41.65
2023-06-14T10:40:40.052Z,58.58
2023-06-14T10:41:40.060Z,47.89
2023-06-14T10:42:40.063Z,60.16
2023-06-14T10:43:40.039Z,61.17
2023-06-14T10:44:40.080Z,73.40
2023-06-14T10:45:40.070Z,82.13
2023-06-14T10:46:40.037Z,95.28
2023-06-14T10:47:40.060Z,111.36
2023-06-14T10:48:40.049Z,112.07
2023-06-14T10:49:40.054Z,104.67
2023-06-14T10:50:40.027Z,95.49
2023-06-14T10:51:39.999Z,101.48
2023-06-14T10:52:40.021Z,88.49
2023-06-14T10:53:39.982Z,78.43
2023-06-14T10:54:39.977Z,48.34
2023-06-14T10:55:39.990Z,48.61
2023-06-14T10:56:39.952Z,40.66
2023-06-14T10:57:51.199Z,46.33
2023-06-14T10:58:41.414Z,46.56
2023-06-14T10:59:39.960Z,48.72
2023-06-14T11:00:40.062Z,49.95
2023-06-14T11:01:39.967Z,54.54
2023-06-14T11:02:39.987Z,42.90
2023-06-14T11:03:39.974Z,43.44
2023-06-14T11:04:39.913Z,35.70
2023-06-14T11:05:39.889Z,56.45
2023-06-14T11:06:39.909Z,56.26
2023-06-14T11:07:39.908Z,46.75
2023-06-14T11:08:39.871Z,65.22
2023-06-14T11:09:39.847Z,74.71
2023-06-14T11:10:39.843Z,80.79
2023-06-14T11:11:39.879Z,74.73
2023-06-14T11:12:40.037Z,60.75
2023-06-14T11:13:39.865Z,37.10
2023-06-14T11:14:39.875Z,36.61
2023-06-14T11:15:39.901Z,50.73
2023-06-14T11:16:39.887Z,39.23
2023-06-14T11:17:39.989Z,27.36
2023-06-14T11:18:39.903Z,23.86
2023-06-14T11:19:39.893Z,26.56
2023-06-14T11:20:39.967Z,46.76
2023-06-14T11:21:39.968Z,60.55
2023-06-14T11:22:39.978Z,65.65
2023-06-14T11:23:40.031Z,69.91
2023-06-14T11:24:39.998Z,71.40
2023-06-14T11:25:40.042Z,71.31
2023-06-14T11:26:40.019Z,67.72
2023-06-14T11:27:40.081Z,68.68
2023-06-14T11:28:40.036Z,30.80
2023-06-14T11:29:40.047Z,37.96
2023-06-14T11:30:40.041Z,46.26
2023-06-14T11:31:40.121Z,42.56
2023-06-14T11:32:40.192Z,35.18
2023-06-14T11:33:40.119Z,40.95
2023-06-14T11:34:40.174Z,41.11
2023-06-14T11:35:40.180Z,35.62
2023-06-14T11:36:40.207Z,25.51
2023-06-14T11:37:40.217Z,23.36
2023-06-14T11:38:40.233Z,51.35
2023-06-14T11:39:40.308Z,51.41
2023-06-14T11:40:40.306Z,50.48
2023-06-14T11:41:40.314Z,38.99
2023-06-14T11:42:40.309Z,37.02
2023-06-14T11:43:40.320Z,40.62
2023-06-14T11:44:40.324Z,24.26
2023-06-14T11:45:40.331Z,42.85
2023-06-14T11:46:40.351Z,50.06
2023-06-14T11:47:40.412Z,49.58
2023-06-14T11:48:40.372Z,25.25
2023-06-14T11:49:40.359Z,35.37
2023-06-14T11:50:40.372Z,38.11
2023-06-14T11:51:40.389Z,51.84
2023-06-14T11:52:40.393Z,54.20
2023-06-14T11:53:40.388Z,53.86
2023-06-14T11:54:40.434Z,58.70
2023-06-14T11:55:40.476Z,53.32
2023-06-14T11:56:40.462Z,41.40
2023-06-14T11:57:40.408Z,45.80
2023-06-14T11:58:40.415Z,53.65
2023-06-14T11:59:40.432Z,65.32
2023-06-14T12:00:40.439Z,70.62
2023-06-14T12:01:40.835Z,67.85
2023-06-14T12:02:40.519Z,62.19
2023-06-14T12:03:40.405Z,82.86
2023-06-14T12:04:40.464Z,61.06
2023-06-14T12:05:40.477Z,72.37
2023-06-14T12:06:40.668Z,67.63
2023-06-14T12:07:40.448Z,58.95
2023-06-14T12:08:40.481Z,51.11
2023-06-14T12:09:40.447Z,44.74
2023-06-14T12:10:40.512Z,36.17
2023-06-14T12:11:40.464Z,30.07
2023-06-14T12:12:40.435Z,42.88
2023-06-14T12:13:40.442Z,40.30
2023-06-14T12:14:40.487Z,29.24
2023-06-14T12:15:40.428Z,19.35
2023-06-14T12:16:40.492Z,37.85
2023-06-14T12:17:40.480Z,36.61
2023-06-14T12:18:40.423Z,44.68
2023-06-14T12:19:40.468Z,46.38
2023-06-14T12:20:40.418Z,37.36
2023-06-14T12:21:40.434Z,52.56
2023-06-14T12:22:40.476Z,43.57
2023-06-14T12:23:40.548Z,48.63
2023-06-14T12:24:40.486Z,32.86
2023-06-14T12:25:40.491Z,35.58
2023-06-14T12:26:40.515Z,29.24
2023-06-14T12:27:40.536Z,26.66
2023-06-14T12:28:40.563Z,30.06
2023-06-14T12:29:40.545Z,20.10
2023-06-14T12:30:40.640Z,9.70
2023-06-14T12:31:40.695Z,24.85
2023-06-14T12:32:40.772Z,30.53
2023-06-14T12:33:40.747Z,49.10
2023-06-14T12:34:40.779Z,31.45
2023-06-14T12:35:40.804Z,43.66
2023-06-14T12:36:40.842Z,45.88
2023-06-14T12:37:40.977Z,46.60
2023-06-14T12:38:40.979Z,25.00
2023-06-14T12:39:40.998Z,36.36
2023-06-14T12:40:41.074Z,43.76